Time;durP1;ratioP1;P1;durP2;ratioP2;P2;SDS_P1;SDS_P2;PMS_P1;PMS_P2;Temp;Humidity;BMP_temperature;BMP_pressure;BME280_temperature;BME280_humidity;BME280_pressure;Samples;Min_cycle;Max_cycle;Signal;HPM_P1;HPM_P2
2023/09/03 00:00:55;;;;;;;4.03;3.72;;;19.40;69.50;;;;;;5024135;28;20076;-71
2023/09/03 00:03:22;;;;;;;4.18;3.88;;;19.30;69.40;;;;;;5015089;28;20471;-73
2023/09/03 00:05:50;;;;;;;3.80;3.50;;;19.30;69.40;;;;;;5020748;28;20562;-70
2023/09/03 00:08:16;;;;;;;4.15;3.80;;;19.30;69.50;;;;;;5015921;28;20414;-71
2023/09/03 00:10:42;;;;;;;4.07;3.70;;;19.30;69.60;;;;;;5023692;28;20531;-69
2023/09/03 00:13:08;;;;;;;4.22;3.85;;;19.20;70.00;;;;;;5011445;28;20052;-71
2023/09/03 00:15:39;;;;;;;4.15;3.75;;;19.20;69.50;;;;;;5017318;28;20473;-66
2023/09/03 00:18:06;;;;;;;4.10;3.80;;;19.20;69.60;;;;;;5010871;28;20045;-70
2023/09/03 00:20:32;;;;;;;4.13;3.75;;;19.20;69.60;;;;;;5018810;28;20096;-74
2023/09/03 00:22:58;;;;;;;4.20;3.80;;;19.20;69.70;;;;;;5015848;28;20357;-69
2023/09/03 00:25:24;;;;;;;3.53;3.22;;;19.20;69.80;;;;;;5014335;28;20144;-70
2023/09/03 00:27:50;;;;;;;3.85;3.55;;;19.10;69.70;;;;;;5019737;28;20044;-67
2023/09/03 00:30:16;;;;;;;5.68;3.75;;;19.10;69.70;;;;;;5011478;28;20080;-67
2023/09/03 00:32:42;;;;;;;4.07;3.78;;;19.00;69.60;;;;;;5009701;28;20064;-71
2023/09/03 00:35:09;;;;;;;4.13;3.83;;;19.00;69.70;;;;;;5008442;28;20635;-68
2023/09/03 00:37:34;;;;;;;3.83;3.50;;;19.00;69.80;;;;;;5011085;28;20041;-69
2023/09/03 00:40:02;;;;;;;4.32;4.03;;;19.00;69.80;;;;;;5011524;28;20041;-70
2023/09/03 00:42:28;;;;;;;3.92;3.38;;;18.90;69.70;;;;;;4995419;28;20044;-72
2023/09/03 00:44:55;;;;;;;3.95;3.65;;;18.90;69.70;;;;;;5020176;28;20560;-69
2023/09/03 00:47:21;;;;;;;4.95;4.55;;;18.90;69.80;;;;;;5012654;28;20045;-68
2023/09/03 00:49:47;;;;;;;4.00;3.70;;;18.80;69.70;;;;;;5010506;28;20120;-72
2023/09/03 00:52:18;;;;;;;4.72;4.32;;;18.80;69.80;;;;;;5005039;28;20254;-70
2023/09/03 00:54:44;;;;;;;4.50;4.05;;;18.80;70.40;;;;;;5015560;28;20080;-70
2023/09/03 00:57:11;;;;;;;4.28;3.88;;;18.80;69.90;;;;;;5010725;28;20194;-68
2023/09/03 00:59:39;;;;;;;4.25;3.95;;;18.80;70.20;;;;;;5017454;28;20037;-67
2023/09/03 01:02:06;;;;;;;3.90;3.60;;;18.80;70.10;;;;;;5015165;28;20101;-67
2023/09/03 01:04:32;;;;;;;4.05;3.67;;;18.70;69.90;;;;;;5017254;28;20422;-70
2023/09/03 01:06:58;;;;;;;4.00;3.70;;;18.70;70.00;;;;;;5012465;28;20087;-69
2023/09/03 01:09:25;;;;;;;4.65;4.35;;;18.70;70.00;;;;;;5009184;28;20036;-68
2023/09/03 01:12:14;;;;;;;4.22;3.92;;;18.70;70.00;;;;;;5011629;28;20026;-70
2023/09/03 01:15:17;;;;;;;5.32;4.20;;;18.60;70.00;;;;;;5012836;28;20041;-69
2023/09/03 01:17:53;;;;;;;4.50;4.13;;;18.60;70.10;;;;;;5011564;28;20119;-71
2023/09/03 01:20:26;;;;;;;4.00;3.70;;;18.60;70.00;;;;;;5006095;28;20037;-71
2023/09/03 01:23:11;;;;;;;4.55;4.15;;;18.60;70.10;;;;;;5014118;28;20042;-68
2023/09/03 01:26:05;;;;;;;4.40;4.10;;;18.50;70.00;;;;;;5009310;28;20116;-71
2023/09/03 01:28:38;;;;;;;4.05;3.75;;;18.60;70.20;;;;;;5007899;28;20064;-71
2023/09/03 01:31:19;;;;;;;4.07;3.78;;;18.50;70.00;;;;;;5008329;28;20448;-67
2023/09/03 01:33:48;;;;;;;4.38;4.07;;;18.50;70.10;;;;;;5006310;28;20375;-67
2023/09/03 01:36:15;;;;;;;5.28;4.22;;;18.50;70.10;;;;;;5008243;28;20045;-66
2023/09/03 01:38:41;;;;;;;4.35;3.97;;;18.50;70.20;;;;;;5008103;28;20030;-66
2023/09/03 01:41:08;;;;;;;4.60;3.85;;;18.40;70.10;;;;;;5006113;28;20037;-66
2023/09/03 01:43:34;;;;;;;4.30;3.95;;;18.40;70.10;;;;;;5013530;28;20034;-72
2023/09/03 01:46:06;;;;;;;4.70;4.30;;;18.40;70.20;;;;;;5011084;28;20057;-67
2023/09/03 01:48:53;;;;;;;4.28;3.88;;;18.40;70.30;;;;;;5015613;28;20053;-67
2023/09/03 01:51:46;;;;;;;4.50;4.10;;;18.40;70.40;;;;;;5006688;28;20065;-69
2023/09/03 01:54:26;;;;;;;4.03;3.70;;;18.30;70.20;;;;;;5020128;28;20276;-69
2023/09/03 01:57:12;;;;;;;4.55;4.13;;;18.30;70.20;;;;;;5011729;28;20053;-69
2023/09/03 01:59:48;;;;;;;4.15;3.85;;;18.30;70.30;;;;;;5015591;28;20033;-68
2023/09/03 02:02:17;;;;;;;4.80;4.40;;;18.20;70.10;;;;;;5017407;28;20536;-68
2023/09/03 02:04:43;;;;;;;5.30;4.80;;;18.20;70.20;;;;;;5010063;28;20030;-67
2023/09/03 02:07:09;;;;;;;4.47;3.88;;;18.20;70.30;;;;;;5012846;28;20059;-67
2023/09/03 02:09:35;;;;;;;4.95;4.22;;;18.20;70.40;;;;;;5015026;28;20530;-69
2023/09/03 02:12:02;;;;;;;4.90;4.50;;;18.20;70.40;;;;;;4997950;28;20037;-68
2023/09/03 02:14:28;;;;;;;4.32;3.92;;;18.20;70.50;;;;;;5008466;28;20068;-67
2023/09/03 02:16:54;;;;;;;4.13;3.75;;;18.20;70.50;;;;;;5013997;28;20093;-68
2023/09/03 02:19:20;;;;;;;5.28;4.88;;;18.10;70.40;;;;;;5011634;28;20030;-68
2023/09/03 02:21:47;;;;;;;4.38;4.00;;;18.10;70.40;;;;;;5012444;28;20092;-68
2023/09/03 02:24:14;;;;;;;4.88;4.47;;;18.10;70.50;;;;;;5014236;28;20438;-67
2023/09/03 02:26:42;;;;;;;4.53;4.22;;;18.10;70.50;;;;;;5012879;28;20118;-67
2023/09/03 02:29:09;;;;;;;3.90;3.60;;;18.10;70.50;;;;;;5014623;28;20022;-68
2023/09/03 02:31:37;;;;;;;4.15;3.83;;;18.10;70.60;;;;;;5014680;28;20022;-67
2023/09/03 02:34:06;;;;;;;4.45;4.05;;;18.00;70.40;;;;;;5011037;28;20037;-68
2023/09/03 02:36:34;;;;;;;4.05;3.65;;;18.00;70.50;;;;;;5011217;28;20041;-67
2023/09/03 02:39:05;;;;;;;4.35;4.05;;;18.00;70.50;;;;;;5013791;28;20025;-68
2023/09/03 02:41:31;;;;;;;4.00;3.70;;;18.00;70.60;;;;;;5013149;28;20029;-67
2023/09/03 02:43:58;;;;;;;4.70;4.30;;;18.00;70.60;;;;;;5009351;28;20516;-67
2023/09/03 02:46:25;;;;;;;3.67;3.47;;;18.00;70.60;;;;;;5007086;28;20033;-66
2023/09/03 02:48:54;;;;;;;4.35;4.00;;;18.00;71.20;;;;;;5017634;28;20036;-67
2023/09/03 02:51:21;;;;;;;4.05;3.75;;;18.00;70.70;;;;;;5005171;28;20061;-67
2023/09/03 02:53:47;;;;;;;4.60;4.20;;;17.90;70.60;;;;;;5007222;28;20029;-68
2023/09/03 02:56:14;;;;;;;4.43;3.97;;;17.90;70.60;;;;;;5018246;28;20095;-67
2023/09/03 02:58:40;;;;;;;5.10;4.60;;;17.90;70.70;;;;;;5012530;28;20319;-67
2023/09/03 03:01:11;;;;;;;4.57;4.18;;;17.90;70.70;;;;;;5026086;28;20040;-67
2023/09/03 03:03:38;;;;;;;4.50;4.10;;;17.90;70.70;;;;;;5011542;28;20029;-67
2023/09/03 03:06:04;;;;;;;4.47;4.07;;;17.90;70.70;;;;;;5013065;28;20441;-67
2023/09/03 03:08:30;;;;;;;4.45;4.05;;;17.80;70.60;;;;;;5017461;28;20033;-68
2023/09/03 03:11:06;;;;;;;3.78;3.47;;;17.80;70.60;;;;;;5013587;28;20025;-67
2023/09/03 03:13:33;;;;;;;3.88;3.58;;;17.80;70.80;;;;;;5007946;28;20511;-67
2023/09/03 03:16:11;;;;;;;3.72;3.42;;;17.80;70.70;;;;;;5012441;28;20199;-70
2023/09/03 03:18:40;;;;;;;3.92;3.63;;;17.80;70.80;;;;;;5013668;28;20041;-67
2023/09/03 03:21:14;;;;;;;4.53;4.10;;;17.70;70.70;;;;;;5011250;28;20552;-69
2023/09/03 03:23:45;;;;;;;4.25;3.65;;;17.70;70.70;;;;;;5013090;28;20041;-68
2023/09/03 03:26:12;;;;;;;4.78;4.30;;;17.70;70.70;;;;;;5009845;28;20179;-68
2023/09/03 03:28:38;;;;;;;4.55;4.20;;;17.70;70.70;;;;;;5006320;28;20040;-69
2023/09/03 03:31:16;;;;;;;3.63;3.30;;;17.70;70.80;;;;;;5013621;28;20037;-68
2023/09/03 03:33:46;;;;;;;4.30;4.00;;;17.70;70.80;;;;;;5012130;28;20033;-67
2023/09/03 03:36:16;;;;;;;4.05;3.70;;;17.60;70.70;;;;;;5014053;28;20649;-68
2023/09/03 03:38:43;;;;;;;4.90;4.35;;;17.60;70.70;;;;;;5002738;28;20037;-69
2023/09/03 03:41:17;;;;;;;4.20;3.90;;;17.60;70.70;;;;;;5020085;28;20038;-67
2023/09/03 03:43:49;;;;;;;4.28;3.97;;;17.60;70.80;;;;;;5017040;28;20501;-67
2023/09/03 03:46:19;;;;;;;4.03;3.70;;;17.60;70.80;;;;;;5011314;28;20541;-67
2023/09/03 03:48:48;;;;;;;4.70;4.30;;;17.60;70.80;;;;;;5017386;28;20026;-69
2023/09/03 03:51:14;;;;;;;4.72;4.32;;;17.60;70.80;;;;;;5015209;28;20148;-68
2023/09/03 03:53:41;;;;;;;4.00;3.70;;;17.50;70.70;;;;;;5020182;28;20034;-68
2023/09/03 03:56:10;;;;;;;4.40;4.03;;;17.50;70.80;;;;;;5021620;28;20112;-67
2023/09/03 03:58:38;;;;;;;4.32;4.03;;;17.50;71.30;;;;;;5016703;28;20095;-67
2023/09/03 04:01:18;;;;;;;4.65;4.30;;;17.40;70.70;;;;;;5016156;28;20317;-67
2023/09/03 04:03:48;;;;;;;4.35;4.05;;;17.40;70.70;;;;;;5020236;28;20037;-67
2023/09/03 04:06:14;;;;;;;5.22;4.72;;;17.40;70.70;;;;;;5012716;28;20042;-69
2023/09/03 04:08:43;;;;;;;4.80;4.40;;;17.40;70.70;;;;;;5022455;28;20049;-69
2023/09/03 04:11:10;;;;;;;4.88;4.47;;;17.40;70.80;;;;;;5014188;28;20326;-69
2023/09/03 04:13:38;;;;;;;4.65;4.30;;;17.40;70.80;;;;;;5016087;28;20539;-69
2023/09/03 04:16:15;;;;;;;4.60;4.20;;;17.30;70.70;;;;;;5020139;28;20041;-69
2023/09/03 04:18:44;;;;;;;4.60;4.20;;;17.30;70.80;;;;;;5021059;28;20101;-70
2023/09/03 04:21:11;;;;;;;5.35;4.88;;;17.30;70.80;;;;;;5022100;28;20606;-69
2023/09/03 04:23:38;;;;;;;4.97;4.55;;;17.30;71.40;;;;;;5021467;28;20439;-68
2023/09/03 04:26:05;;;;;;;4.78;4.40;;;17.30;70.80;;;;;;5005849;28;20031;-68
2023/09/03 04:28:36;;;;;;;4.70;4.30;;;17.30;70.90;;;;;;5011220;28;20112;-69
2023/09/03 04:31:08;;;;;;;4.60;4.18;;;17.30;70.90;;;;;;5014957;28;20241;-68
2023/09/03 04:33:36;;;;;;;4.80;4.40;;;17.20;70.80;;;;;;5010958;28;20129;-69
2023/09/03 04:36:03;;;;;;;4.57;4.18;;;17.20;70.80;;;;;;5010724;28;20046;-67
2023/09/03 04:38:32;;;;;;;6.32;5.53;;;17.20;71.40;;;;;;5013719;28;20151;-68
2023/09/03 04:41:05;;;;;;;4.35;4.00;;;17.20;70.90;;;;;;5021328;28;20068;-66
2023/09/03 04:43:36;;;;;;;5.03;4.63;;;17.20;70.90;;;;;;5031857;28;20033;-66
2023/09/03 04:46:03;;;;;;;5.45;4.95;;;17.20;70.90;;;;;;5011258;28;20021;-67
2023/09/03 04:48:29;;;;;;;5.78;5.28;;;17.20;71.00;;;;;;5019765;28;20044;-66
2023/09/03 04:50:58;;;;;;;4.70;4.30;;;17.20;71.00;;;;;;5024589;28;20421;-67
2023/09/03 04:53:24;;;;;;;4.60;4.20;;;17.20;71.00;;;;;;5026512;28;20079;-67
2023/09/03 04:55:50;;;;;;;5.50;5.10;;;17.10;70.90;;;;;;5023182;28;20116;-65
2023/09/03 04:58:16;;;;;;;5.70;5.20;;;17.10;70.90;;;;;;5020124;28;20044;-68
2023/09/03 05:00:43;;;;;;;5.50;5.10;;;17.10;71.00;;;;;;5018768;28;20030;-68
2023/09/03 05:03:10;;;;;;;5.30;4.85;;;17.10;71.00;;;;;;5015238;28;20033;-67
2023/09/03 05:05:40;;;;;;;5.70;5.20;;;17.10;71.00;;;;;;5022043;28;20352;-68
2023/09/03 05:08:09;;;;;;;5.32;4.82;;;17.10;71.10;;;;;;5025381;28;20025;-67
2023/09/03 05:10:35;;;;;;;5.32;4.82;;;17.00;71.00;;;;;;5008153;28;20181;-66
2023/09/03 05:13:04;;;;;;;5.40;4.90;;;17.10;71.10;;;;;;5023661;28;20056;-67
2023/09/03 05:15:30;;;;;;;5.70;5.20;;;17.00;71.00;;;;;;4995479;28;20381;-67
2023/09/03 05:17:57;;;;;;;5.30;4.80;;;17.00;71.00;;;;;;5026321;28;20037;-67
2023/09/03 05:20:23;;;;;;;4.82;4.43;;;17.00;71.00;;;;;;5012978;28;20030;-69
2023/09/03 05:22:49;;;;;;;5.15;4.72;;;17.00;71.10;;;;;;5018186;28;20516;-67
2023/09/03 05:25:15;;;;;;;5.28;4.80;;;17.00;71.10;;;;;;5011978;28;20381;-67
2023/09/03 05:27:41;;;;;;;5.10;4.70;;;17.00;71.10;;;;;;4994749;28;20037;-69
2023/09/03 05:30:09;;;;;;;5.43;4.82;;;16.90;71.00;;;;;;5020208;28;20036;-67
2023/09/03 05:32:36;;;;;;;5.40;4.90;;;16.90;71.00;;;;;;5019734;28;20111;-68
2023/09/03 05:35:03;;;;;;;5.70;5.25;;;16.90;71.10;;;;;;5009270;28;20036;-66
2023/09/03 05:37:29;;;;;;;5.40;4.90;;;16.90;71.10;;;;;;5005297;28;20120;-67
2023/09/03 05:39:55;;;;;;;5.03;4.63;;;16.90;71.10;;;;;;5018628;28;20608;-66
2023/09/03 05:42:21;;;;;;;5.93;5.43;;;16.90;71.20;;;;;;5010427;28;20033;-68
2023/09/03 05:44:48;;;;;;;6.47;5.90;;;16.90;71.20;;;;;;5013554;28;20109;-68
2023/09/03 05:47:18;;;;;;;5.78;5.18;;;16.90;71.20;;;;;;5010852;28;20025;-71
2023/09/03 05:49:46;;;;;;;5.75;5.25;;;16.90;71.20;;;;;;4997900;28;20033;-67
2023/09/03 05:52:12;;;;;;;5.30;4.88;;;16.90;71.10;;;;;;5015579;28;20053;-68
2023/09/03 05:54:39;;;;;;;4.82;4.43;;;17.00;71.30;;;;;;5007738;28;20041;-66
2023/09/03 05:57:07;;;;;;;4.85;4.45;;;17.00;71.30;;;;;;5013935;28;20040;-67
2023/09/03 05:59:33;;;;;;;5.68;5.18;;;17.00;71.20;;;;;;5007458;28;20197;-66
2023/09/03 06:02:00;;;;;;;5.30;4.85;;;17.00;71.20;;;;;;5008552;28;20029;-65
2023/09/03 06:04:27;;;;;;;5.50;5.00;;;17.00;71.10;;;;;;5017915;28;20029;-69
2023/09/03 06:06:53;;;;;;;4.82;4.35;;;17.10;71.30;;;;;;5017957;28;20025;-68
2023/09/03 06:09:19;;;;;;;5.53;5.13;;;17.10;71.20;;;;;;5013751;28;20127;-66
2023/09/03 06:11:48;;;;;;;4.70;4.30;;;17.10;71.20;;;;;;5008320;28;20505;-68
2023/09/03 06:14:15;;;;;;;5.75;5.25;;;17.20;71.20;;;;;;5006553;28;20145;-66
2023/09/03 06:16:42;;;;;;;5.63;5.22;;;17.20;71.20;;;;;;5013532;28;20111;-66
2023/09/03 06:19:08;;;;;;;5.20;4.80;;;17.20;71.20;;;;;;5010209;28;20033;-68
2023/09/03 06:21:33;;;;;;;5.05;4.65;;;17.30;71.20;;;;;;5012057;28;20068;-71
2023/09/03 06:24:00;;;;;;;5.63;5.22;;;17.30;71.20;;;;;;5011128;28;20506;-69
2023/09/03 06:26:26;;;;;;;4.95;4.55;;;17.40;71.30;;;;;;5010959;28;20037;-72
2023/09/03 06:28:51;;;;;;;5.65;5.20;;;17.40;71.20;;;;;;5014703;28;20518;-69
2023/09/03 06:31:18;;;;;;;4.80;4.40;;;17.40;71.20;;;;;;5013047;28;20516;-67
2023/09/03 06:33:44;;;;;;;6.82;6.32;;;17.50;71.20;;;;;;5017756;28;20170;-67
2023/09/03 06:36:11;;;;;;;7.80;6.07;;;17.60;71.30;;;;;;5009030;28;20045;-66
2023/09/03 06:38:39;;;;;;;7.18;5.90;;;17.60;71.30;;;;;;5004213;28;20272;-67
2023/09/03 06:41:05;;;;;;;7.57;5.65;;;17.80;72.00;;;;;;5014667;28;20174;-71
2023/09/03 06:43:32;;;;;;;11.18;6.35;;;17.90;72.30;;;;;;5017215;28;20021;-69
2023/09/03 06:45:58;;;;;;;15.20;6.75;;;18.00;72.70;;;;;;5008733;28;20025;-67
2023/09/03 06:48:25;;;;;;;7.40;6.70;;;18.20;73.20;;;;;;5006605;28;20702;-67
2023/09/03 06:50:52;;;;;;;8.45;6.57;;;18.30;73.40;;;;;;5015268;28;20444;-69
2023/09/03 06:53:18;;;;;;;6.93;6.25;;;18.40;73.60;;;;;;5011036;28;20033;-66
2023/09/03 06:55:45;;;;;;;7.35;6.50;;;18.50;73.80;;;;;;5013377;28;20033;-70
2023/09/03 06:58:12;;;;;;;8.07;7.05;;;18.60;74.00;;;;;;5014814;28;20092;-69
2023/09/03 07:00:38;;;;;;;7.20;6.40;;;18.70;74.10;;;;;;5011324;28;20025;-68
2023/09/03 07:03:04;;;;;;;9.38;6.57;;;18.80;74.20;;;;;;5007461;28;20095;-67
2023/09/03 07:05:31;;;;;;;6.28;5.50;;;18.90;74.20;;;;;;5016214;28;20029;-68
2023/09/03 07:07:58;;;;;;;6.32;5.72;;;19.00;74.20;;;;;;5004571;28;20029;-68
2023/09/03 07:10:27;;;;;;;7.32;5.75;;;19.00;74.00;;;;;;5006137;28;20201;-68
2023/09/03 07:12:56;;;;;;;6.57;5.97;;;19.10;74.10;;;;;;5008046;28;20397;-68
2023/09/03 07:15:26;;;;;;;6.70;5.88;;;19.10;73.90;;;;;;5013018;28;20327;-68
2023/09/03 07:17:53;;;;;;;6.95;5.70;;;19.10;73.80;;;;;;5013522;28;20096;-69
2023/09/03 07:20:22;;;;;;;6.15;5.53;;;19.10;73.60;;;;;;5016255;28;20280;-68
2023/09/03 07:22:48;;;;;;;6.25;5.68;;;19.10;73.50;;;;;;5013967;28;20526;-69
2023/09/03 07:25:14;;;;;;;6.00;5.50;;;19.10;73.50;;;;;;5014175;28;20339;-68
2023/09/03 07:27:40;;;;;;;6.72;6.05;;;19.20;73.50;;;;;;5015953;28;20041;-68
2023/09/03 07:30:08;;;;;;;6.72;6.10;;;19.20;73.40;;;;;;5023737;28;20825;-68
2023/09/03 07:32:37;;;;;;;5.53;5.03;;;19.20;73.40;;;;;;5011061;28;20030;-69
2023/09/03 07:35:07;;;;;;;6.28;5.68;;;19.20;73.30;;;;;;5016978;28;20029;-68
2023/09/03 07:37:33;;;;;;;6.25;5.65;;;19.20;73.20;;;;;;5012523;28;20526;-68
2023/09/03 07:40:00;;;;;;;6.97;6.10;;;19.30;73.30;;;;;;5016297;28;20028;-68
2023/09/03 07:42:26;;;;;;;5.75;5.20;;;19.30;73.10;;;;;;5011201;28;20080;-68
2023/09/03 07:44:53;;;;;;;5.60;5.07;;;19.30;73.00;;;;;;5010695;28;20041;-68
2023/09/03 07:47:19;;;;;;;9.73;6.97;;;19.40;73.00;;;;;;5013534;28;20045;-68
2023/09/03 07:49:46;;;;;;;6.25;5.65;;;19.40;72.80;;;;;;5015707;28;20033;-68
2023/09/03 07:52:13;;;;;;;6.30;5.40;;;19.50;72.90;;;;;;5021334;28;20028;-68
2023/09/03 07:54:40;;;;;;;5.45;5.05;;;19.50;72.60;;;;;;5017000;28;20305;-69
2023/09/03 07:57:07;;;;;;;5.82;5.32;;;19.60;72.70;;;;;;5019381;28;20060;-68
2023/09/03 07:59:34;;;;;;;6.25;5.65;;;19.70;72.70;;;;;;5021080;28;20342;-68
2023/09/03 08:02:02;;;;;;;6.22;5.63;;;19.70;72.50;;;;;;5012462;28;20055;-68
2023/09/03 08:04:28;;;;;;;5.35;4.85;;;19.80;72.50;;;;;;5019093;28;20021;-68
2023/09/03 08:06:55;;;;;;;6.20;5.70;;;19.80;72.40;;;;;;5011547;28;20033;-69
2023/09/03 08:09:24;;;;;;;6.82;6.22;;;19.90;72.50;;;;;;5013773;28;20022;-69
2023/09/03 08:11:51;;;;;;;6.05;5.53;;;19.90;72.30;;;;;;5019598;28;20038;-69
2023/09/03 08:14:17;;;;;;;6.70;6.00;;;20.00;72.50;;;;;;5010481;28;20038;-68
2023/09/03 08:16:44;;;;;;;6.50;5.90;;;20.00;72.40;;;;;;5013306;28;20144;-69
2023/09/03 08:19:10;;;;;;;5.88;5.38;;;20.10;72.50;;;;;;5012081;28;20032;-68
2023/09/03 08:21:36;;;;;;;5.80;5.30;;;20.10;72.40;;;;;;5009748;28;20515;-68
2023/09/03 08:24:03;;;;;;;8.85;6.03;;;20.20;72.40;;;;;;5012906;28;20067;-69
2023/09/03 08:26:29;;;;;;;6.47;5.88;;;20.20;72.30;;;;;;5008195;28;20029;-67
2023/09/03 08:28:55;;;;;;;5.18;4.78;;;20.20;72.10;;;;;;5014753;28;20026;-69
2023/09/03 08:31:22;;;;;;;6.15;5.55;;;20.30;72.20;;;;;;5014414;28;20540;-68
2023/09/03 08:33:53;;;;;;;6.60;6.00;;;20.40;72.20;;;;;;5007183;28;20116;-68
2023/09/03 08:36:22;;;;;;;12.45;7.70;;;20.40;72.10;;;;;;5009103;28;20037;-67
2023/09/03 08:38:48;;;;;;;24.83;12.05;;;20.40;72.00;;;;;;5017226;28;20041;-67
2023/09/03 08:41:21;;;;;;;23.40;13.30;;;20.50;72.40;;;;;;5018640;28;20396;-68
2023/09/03 08:43:49;;;;;;;37.78;15.82;;;20.50;72.60;;;;;;5010248;28;20030;-69
2023/09/03 08:46:17;;;;;;;63.08;27.40;;;20.60;73.00;;;;;;5011448;28;20116;-68
2023/09/03 08:48:44;;;;;;;43.60;19.08;;;20.60;73.30;;;;;;5006707;28;20454;-68
2023/09/03 08:51:11;;;;;;;24.90;13.15;;;20.70;73.90;;;;;;5013178;28;20033;-68
2023/09/03 08:53:38;;;;;;;23.15;11.77;;;20.70;74.00;;;;;;5008496;28;20112;-69
2023/09/03 08:56:05;;;;;;;18.05;10.30;;;20.80;74.10;;;;;;5015533;28;20188;-68
2023/09/03 08:58:32;;;;;;;18.50;9.80;;;20.90;74.20;;;;;;5010462;28;20056;-68
2023/09/03 09:00:59;;;;;;;20.42;10.13;;;20.90;74.20;;;;;;5009446;28;20032;-68
2023/09/03 09:03:28;;;;;;;14.60;9.45;;;21.00;74.20;;;;;;5009762;28;20029;-68
2023/09/03 09:05:55;;;;;;;15.23;9.65;;;21.00;74.10;;;;;;5017941;28;20045;-68
2023/09/03 09:08:23;;;;;;;18.17;8.82;;;21.10;74.20;;;;;;5010094;28;20021;-68
2023/09/03 09:10:51;;;;;;;13.15;8.27;;;21.10;74.10;;;;;;5005466;28;20038;-68
2023/09/03 09:13:24;;;;;;;13.95;8.23;;;21.20;74.20;;;;;;5011153;28;20029;-69
2023/09/03 09:15:51;;;;;;;15.77;7.05;;;21.20;74.10;;;;;;5013903;28;20022;-70
2023/09/03 09:18:17;;;;;;;19.42;7.97;;;21.20;74.00;;;;;;5011952;28;20124;-69
2023/09/03 09:20:44;;;;;;;13.85;7.43;;;21.40;74.20;;;;;;5013883;28;20036;-69
2023/09/03 09:23:11;;;;;;;14.48;7.70;;;21.30;74.00;;;;;;5016789;28;20036;-68
2023/09/03 09:25:37;;;;;;;13.65;6.55;;;21.40;74.10;;;;;;5007819;28;20385;-69
2023/09/03 09:28:13;;;;;;;15.93;7.28;;;21.50;74.20;;;;;;5011602;28;20038;-68
2023/09/03 09:30:57;;;;;;;12.52;6.85;;;21.50;74.10;;;;;;5007616;28;20206;-69
2023/09/03 09:33:24;;;;;;;12.40;6.40;;;21.60;74.20;;;;;;5012819;28;20055;-68
2023/09/03 09:35:50;;;;;;;14.43;6.90;;;21.60;74.10;;;;;;5013865;28;20052;-68
2023/09/03 09:38:18;;;;;;;19.65;6.03;;;21.70;74.10;;;;;;5009903;28;20052;-68
2023/09/03 09:40:47;;;;;;;11.20;6.20;;;21.70;74.00;;;;;;5008904;28;20041;-68
2023/09/03 09:43:14;;;;;;;7.28;6.05;;;21.70;73.90;;;;;;5017556;28;20041;-68
2023/09/03 09:45:51;;;;;;;14.07;6.30;;;21.80;73.90;;;;;;5015405;28;20030;-67
2023/09/03 09:48:18;;;;;;;11.38;5.68;;;21.80;73.80;;;;;;5002100;28;20037;-68
2023/09/03 09:50:47;;;;;;;8.43;5.35;;;21.90;73.80;;;;;;5009950;28;20042;-69
2023/09/03 09:53:24;;;;;;;6.35;4.85;;;21.90;73.70;;;;;;5010045;28;20029;-68
2023/09/03 09:56:02;;;;;;;14.57;5.13;;;22.00;73.70;;;;;;5017937;28;20453;-67
2023/09/03 09:58:39;;;;;;;7.13;5.28;;;22.00;73.50;;;;;;5005877;28;20084;-68
2023/09/03 10:01:07;;;;;;;5.28;4.78;;;22.00;73.30;;;;;;5005022;28;20044;-68
2023/09/03 10:03:47;;;;;;;7.07;4.75;;;22.10;73.40;;;;;;5007150;28;20105;-68
2023/09/03 10:06:15;;;;;;;10.10;5.88;;;22.20;73.30;;;;;;5005379;28;20151;-68
2023/09/03 10:08:44;;;;;;;5.53;4.97;;;22.20;73.20;;;;;;5006782;28;20092;-68
2023/09/03 10:11:11;;;;;;;6.20;4.50;;;22.20;73.00;;;;;;5016731;28;20362;-68
2023/09/03 10:13:42;;;;;;;6.35;4.82;;;22.30;73.10;;;;;;5008976;28;20048;-69
2023/09/03 10:16:10;;;;;;;5.65;5.15;;;22.30;72.90;;;;;;5005956;28;20033;-68
2023/09/03 10:18:45;;;;;;;7.72;4.45;;;22.30;72.90;;;;;;5012247;28;20083;-70
2023/09/03 10:21:33;;;;;;;4.63;4.13;;;22.40;73.00;;;;;;5015293;28;20112;-70
2023/09/03 10:24:05;;;;;;;9.20;4.90;;;22.50;73.00;;;;;;5002565;28;20038;-69
2023/09/03 10:26:43;;;;;;;6.40;4.72;;;22.50;72.90;;;;;;5007279;28;20068;-69
2023/09/03 10:29:19;;;;;;;5.70;4.93;;;22.50;72.80;;;;;;5006407;28;20034;-70
2023/09/03 10:31:50;;;;;;;5.68;4.43;;;22.60;72.90;;;;;;4998059;28;20092;-69
2023/09/03 10:34:17;;;;;;;5.40;4.90;;;22.60;72.80;;;;;;5003269;28;20128;-70
2023/09/03 10:37:03;;;;;;;4.53;4.00;;;22.70;72.90;;;;;;5005848;28;20049;-69
2023/09/03 10:39:29;;;;;;;5.97;4.22;;;22.70;72.80;;;;;;5008994;28;20520;-69
2023/09/03 10:42:28;;;;;;;6.82;3.83;;;22.80;72.90;;;;;;5005238;28;20470;-69
2023/09/03 10:44:57;;;;;;;7.60;4.50;;;22.90;72.80;;;;;;4957513;28;20503;-67
2023/09/03 10:47:24;;;;;;;4.38;3.90;;;22.90;72.70;;;;;;5015698;28;20386;-69
2023/09/03 10:49:54;;;;;;;4.13;3.72;;;23.00;72.80;;;;;;5007142;28;20478;-68
2023/09/03 10:52:27;;;;;;;4.22;3.38;;;23.00;72.70;;;;;;5015135;28;20065;-68
2023/09/03 10:55:21;;;;;;;5.13;3.53;;;23.00;72.60;;;;;;5005272;28;20112;-68
2023/09/03 10:58:10;;;;;;;7.07;3.65;;;23.10;72.60;;;;;;5015798;28;20045;-69
2023/09/03 11:00:37;;;;;;;3.70;3.40;;;23.20;72.70;;;;;;5000247;28;20041;-68
2023/09/03 11:03:18;;;;;;;3.95;3.42;;;23.20;72.50;;;;;;5019436;28;20037;-68
2023/09/03 11:06:14;;;;;;;4.55;3.65;;;23.20;72.50;;;;;;5005948;28;20038;-68
2023/09/03 11:08:40;;;;;;;5.00;4.25;;;23.30;72.50;;;;;;5006738;28;20068;-68
2023/09/03 11:11:10;;;;;;;4.75;3.92;;;23.40;72.50;;;;;;5000636;28;20529;-69
2023/09/03 11:13:36;;;;;;;4.38;4.00;;;23.50;72.60;;;;;;5014328;28;20037;-68
2023/09/03 11:16:02;;;;;;;6.20;4.28;;;23.60;72.70;;;;;;5010885;28;20029;-68
2023/09/03 11:18:30;;;;;;;5.25;3.90;;;23.70;72.80;;;;;;5002673;28;20042;-69
2023/09/03 11:20:59;;;;;;;7.65;5.20;;;23.70;72.60;;;;;;5009012;28;20026;-68
2023/09/03 11:23:28;;;;;;;5.25;4.05;;;23.80;72.70;;;;;;5006087;28;20057;-68
2023/09/03 11:25:55;;;;;;;5.38;3.63;;;23.90;72.80;;;;;;5016902;28;20037;-68
2023/09/03 11:28:21;;;;;;;6.22;3.72;;;23.90;72.70;;;;;;5003065;28;20475;-68
2023/09/03 11:30:48;;;;;;;3.92;3.60;;;24.10;72.90;;;;;;5011153;28;20109;-69
2023/09/03 11:33:24;;;;;;;5.50;4.20;;;24.10;72.80;;;;;;5017076;28;20068;-69
2023/09/03 11:35:53;;;;;;;5.63;4.43;;;24.30;72.90;;;;;;5011393;28;20053;-68
2023/09/03 11:38:25;;;;;;;4.90;4.40;;;24.30;72.80;;;;;;5007242;28;20100;-70
2023/09/03 11:40:56;;;;;;;6.18;3.78;;;24.40;72.70;;;;;;5011346;28;20033;-68
2023/09/03 11:43:25;;;;;;;6.82;5.93;;;24.50;72.70;;;;;;5016562;28;20018;-68
2023/09/03 11:45:51;;;;;;;10.45;8.82;;;24.60;72.80;;;;;;5015105;28;20026;-68
2023/09/03 11:48:28;;;;;;;12.65;11.30;;;24.60;72.80;;;;;;5005612;28;20116;-69
2023/09/03 11:50:54;;;;;;;11.90;10.73;;;24.80;73.40;;;;;;5012038;28;20045;-70
2023/09/03 11:53:22;;;;;;;11.93;10.27;;;24.80;73.50;;;;;;5013231;28;20094;-69
2023/09/03 11:55:54;;;;;;;14.30;12.82;;;24.90;73.90;;;;;;5008415;28;20247;-69
2023/09/03 11:58:23;;;;;;;11.20;9.98;;;25.00;74.20;;;;;;5014528;28;20124;-69
2023/09/03 12:00:51;;;;;;;13.50;10.23;;;25.10;74.50;;;;;;5011437;28;20368;-69
2023/09/03 12:03:17;;;;;;;9.65;8.68;;;25.20;74.90;;;;;;5007910;28;20079;-69
2023/09/03 12:05:44;;;;;;;8.52;7.70;;;25.30;75.10;;;;;;5011683;28;20091;-68
2023/09/03 12:08:10;;;;;;;10.43;8.50;;;25.40;75.30;;;;;;5011223;28;20061;-69
2023/09/03 12:10:37;;;;;;;8.57;7.65;;;25.40;75.20;;;;;;5013370;28;20040;-69
2023/09/03 12:13:04;;;;;;;7.28;6.55;;;25.50;75.10;;;;;;5016250;28;20049;-68
2023/09/03 12:15:31;;;;;;;8.52;6.65;;;25.60;74.90;;;;;;5017221;28;20151;-68
2023/09/03 12:18:10;;;;;;;7.25;6.00;;;25.70;74.60;;;;;;5012679;28;20409;-69
2023/09/03 12:20:38;;;;;;;6.85;6.22;;;25.70;74.00;;;;;;5015511;28;20080;-68
2023/09/03 12:23:06;;;;;;;5.65;5.10;;;25.80;73.70;;;;;;5012030;28;20034;-69
2023/09/03 12:25:35;;;;;;;6.85;5.65;;;25.90;73.30;;;;;;5017758;28;20469;-70
2023/09/03 12:28:04;;;;;;;6.28;5.78;;;25.90;72.90;;;;;;5010405;28;20037;-70
2023/09/03 12:30:56;;;;;;;6.32;4.97;;;26.00;72.60;;;;;;5017770;28;20048;-70
2023/09/03 12:33:26;;;;;;;6.60;6.00;;;26.10;71.90;;;;;;5016301;28;20517;-70
2023/09/03 12:36:05;;;;;;;5.10;4.63;;;26.10;71.80;;;;;;5003749;28;20145;-69
2023/09/03 12:39:12;;;;;;;4.25;3.95;;;26.20;71.30;;;;;;5009898;28;20083;-70
2023/09/03 12:41:38;;;;;;;4.45;3.75;;;26.30;70.90;;;;;;5014770;28;20472;-69
2023/09/03 12:44:07;;;;;;;3.95;3.58;;;26.40;70.70;;;;;;5018306;28;20634;-69
2023/09/03 12:46:34;;;;;;;3.58;3.28;;;26.40;70.20;;;;;;5010656;28;20049;-70
2023/09/03 12:49:05;;;;;;;6.15;3.72;;;26.50;69.90;;;;;;5012624;28;20592;-70
2023/09/03 12:51:33;;;;;;;4.05;3.08;;;26.60;69.50;;;;;;5013779;28;20505;-69
2023/09/03 12:53:59;;;;;;;4.40;3.35;;;26.70;69.20;;;;;;5009467;28;20529;-69
2023/09/03 12:56:28;;;;;;;3.15;2.70;;;26.80;68.90;;;;;;5014686;28;20038;-70